createdAt,value
2023-02-07T00:00:55.635Z,143.60
2023-02-07T00:12:05.706Z,157.80
2023-02-07T00:23:10.449Z,146.40
2023-02-07T00:33:37.482Z,166.50
2023-02-07T00:44:01.761Z,176.50
2023-02-07T00:54:21.356Z,165.10
2023-02-07T01:04:25.701Z,154.30
2023-02-07T01:14:33.125Z,160.60
2023-02-07T01:25:11.898Z,176.50
2023-02-07T01:35:18.898Z,163.50
2023-02-07T01:45:38.574Z,139.80
2023-02-07T01:55:46.283Z,151.00
2023-02-07T02:06:03.165Z,122.60
2023-02-07T02:16:22.480Z,124.60
2023-02-07T02:27:01.340Z,101.80
2023-02-07T02:37:28.638Z,102.30
2023-02-07T02:47:53.605Z,100.70
2023-02-07T02:58:15.475Z,94.40
2023-02-07T03:08:35.114Z,98.90
2023-02-07T03:19:23.085Z,62.20
2023-02-07T03:29:44.480Z,88.90
2023-02-07T03:39:49.341Z,95.80
2023-02-07T04:00:21.104Z,94.40
2023-02-07T04:10:31.179Z,85.40
2023-02-07T04:21:06.530Z,99.60
2023-02-07T04:31:24.915Z,111.30
2023-02-07T04:41:40.888Z,101.00
2023-02-07T04:51:48.029Z,110.50
2023-02-07T05:02:26.579Z,95.60
2023-02-07T05:12:36.277Z,108.80
2023-02-07T05:23:23.599Z,133.90
2023-02-07T05:33:52.587Z,144.40
2023-02-07T05:44:03.815Z,150.30
2023-02-07T05:54:07.997Z,145.80
2023-02-07T06:04:40.997Z,127.40
2023-02-07T06:14:44.997Z,167.50
2023-02-07T06:25:00.158Z,152.90
2023-02-07T06:35:09.627Z,146.50
2023-02-07T06:45:21.783Z,136.30
2023-02-07T06:55:51.153Z,122.40
2023-02-07T07:06:15.721Z,165.10
2023-02-07T07:16:22.926Z,184.70
2023-02-07T07:26:50.068Z,208.40
2023-02-07T07:37:07.082Z,181.70
2023-02-07T07:47:11.380Z,177.90
2023-02-07T07:57:28.669Z,219.20
2023-02-07T08:07:41.417Z,151.80
2023-02-07T08:17:48.374Z,170.50
2023-02-07T08:27:52.862Z,143.90
2023-02-07T08:37:58.627Z,77.50
2023-02-07T08:48:06.439Z,94.00
2023-02-07T08:58:13.939Z,131.10
2023-02-07T09:08:23.792Z,125.40
2023-02-07T09:18:28.263Z,124.10
2023-02-07T09:28:36.251Z,114.00
2023-02-07T09:38:44.229Z,99.70
2023-02-07T09:49:05.243Z,107.70
2023-02-07T09:59:47.903Z,125.60
2023-02-07T10:09:52.391Z,117.70
2023-02-07T10:20:47.955Z,137.80
2023-02-07T10:31:01.319Z,146.80
2023-02-07T10:41:19.714Z,131.50
2023-02-07T10:51:33.934Z,117.60
2023-02-07T11:01:39.388Z,121.00
2023-02-07T11:11:57.258Z,113.70
2023-02-07T11:22:23.294Z,135.50
2023-02-07T11:32:50.945Z,101.50
2023-02-07T11:43:23.514Z,111.50
2023-02-07T11:54:11.112Z,100.90
2023-02-07T12:04:28.073Z,133.40
2023-02-07T12:14:42.519Z,96.60
2023-02-07T12:25:02.471Z,102.90
2023-02-07T12:35:56.809Z,102.50
2023-02-07T12:46:09.559Z,140.20
2023-02-07T12:56:53.356Z,116.60
2023-02-07T13:07:42.613Z,135.80
2023-02-07T13:17:55.632Z,138.50
2023-02-07T13:28:08.789Z,193.10
2023-02-07T13:38:46.768Z,142.10
2023-02-07T13:49:04.236Z,113.20
2023-02-07T13:59:39.580Z,113.30
2023-02-07T14:10:18.343Z,165.00
2023-02-07T14:20:54.061Z,149.00
2023-02-07T14:31:29.591Z,342.00
2023-02-07T14:41:51.263Z,161.10
2023-02-07T14:52:21.945Z,136.70
2023-02-07T15:02:40.325Z,154.40
2023-02-07T15:12:47.834Z,118.70
2023-02-07T15:23:02.945Z,114.90
2023-02-07T15:33:22.052Z,112.20
2023-02-07T15:44:06.132Z,142.60
2023-02-07T15:54:17.000Z,172.90
2023-02-07T16:04:36.248Z,162.40
2023-02-07T16:14:46.255Z,152.20
2023-02-07T16:25:06.337Z,130.20
2023-02-07T16:35:22.883Z,122.30
2023-02-07T16:45:39.864Z,98.50
2023-02-07T16:55:46.932Z,121.50
2023-02-07T17:05:51.426Z,149.90
2023-02-07T17:15:57.756Z,162.50
2023-02-07T17:26:06.716Z,184.90
2023-02-07T17:36:15.379Z,206.20
2023-02-07T17:46:26.454Z,233.00
2023-02-07T17:56:41.136Z,216.10
2023-02-07T18:06:49.210Z,240.00
2023-02-07T18:16:57.770Z,252.40
2023-02-07T18:27:06.439Z,237.80
2023-02-07T18:37:14.003Z,215.40
2023-02-07T18:47:23.188Z,214.80
2023-02-07T18:57:31.678Z,222.10
2023-02-07T19:07:48.895Z,219.70
2023-02-07T19:18:03.377Z,229.90
2023-02-07T19:28:10.829Z,214.00
2023-02-07T19:38:58.000Z,266.90
2023-02-07T19:49:50.083Z,236.80
2023-02-07T20:00:25.358Z,200.60
2023-02-07T20:10:35.204Z,186.80
2023-02-07T20:21:36.740Z,217.60
2023-02-07T20:32:13.766Z,240.30
2023-02-07T20:42:30.840Z,265.10
2023-02-07T20:52:38.848Z,260.80
2023-02-07T21:02:44.895Z,308.20
2023-02-07T21:13:00.360Z,328.00
2023-02-07T21:23:05.557Z,259.60
2023-02-07T21:33:10.183Z,277.10
2023-02-07T21:43:20.329Z,296.70
2023-02-07T21:53:27.015Z,315.80
2023-02-07T22:03:33.550Z,243.20
2023-02-07T22:13:51.514Z,253.70
2023-02-07T22:24:17.173Z,258.00
2023-02-07T22:34:41.449Z,253.90
2023-02-07T22:44:52.729Z,254.40
2023-02-07T22:54:59.657Z,239.70
2023-02-07T23:05:15.896Z,259.50
2023-02-07T23:15:23.689Z,270.70
2023-02-07T23:25:27.991Z,250.90
2023-02-07T23:35:34.765Z,221.20
2023-02-07T23:55:43.077Z,210.90
